createdAt,value
2022-11-30T00:00:37.670Z,46.92
2022-11-30T00:03:04.988Z,46.22
2022-11-30T00:05:31.707Z,49.75
2022-11-30T00:08:01.542Z,45.85
2022-11-30T00:10:28.154Z,45.72
2022-11-30T00:12:54.812Z,53.72
2022-11-30T00:15:21.347Z,47.45
2022-11-30T00:17:48.305Z,37.83
2022-11-30T00:20:16.045Z,44.60
2022-11-30T00:22:42.998Z,35.53
2022-11-30T00:25:10.221Z,40.00
2022-11-30T00:27:36.841Z,44.33
2022-11-30T00:30:03.599Z,39.38
2022-11-30T00:32:30.183Z,45.13
2022-11-30T00:34:56.831Z,37.97
2022-11-30T00:37:23.560Z,39.25
2022-11-30T00:39:50.172Z,42.58
2022-11-30T00:42:16.816Z,41.97
2022-11-30T00:44:43.493Z,38.03
2022-11-30T00:47:10.162Z,41.13
2022-11-30T00:49:36.799Z,42.80
2022-11-30T00:52:04.271Z,43.97
2022-11-30T00:54:30.952Z,40.90
2022-11-30T00:56:57.562Z,47.53
2022-11-30T00:59:24.137Z,45.40
2022-11-30T01:01:50.755Z,39.80
2022-11-30T01:04:17.352Z,38.97
2022-11-30T01:06:43.925Z,41.72
2022-11-30T01:09:10.648Z,39.97
2022-11-30T01:11:37.279Z,41.47
2022-11-30T01:14:04.160Z,40.45
2022-11-30T01:16:32.992Z,39.97
2022-11-30T01:19:00.048Z,38.55
2022-11-30T01:21:28.627Z,43.45
2022-11-30T01:23:56.100Z,41.40
2022-11-30T01:26:23.451Z,45.63
2022-11-30T01:28:54.508Z,46.53
2022-11-30T01:31:23.772Z,44.42
2022-11-30T01:33:52.536Z,39.90
2022-11-30T01:36:21.706Z,44.70
2022-11-30T01:38:51.055Z,43.78
2022-11-30T01:41:21.916Z,42.60
2022-11-30T01:43:52.386Z,47.17
2022-11-30T01:46:42.340Z,43.08
2022-11-30T01:49:08.829Z,41.55
2022-11-30T01:51:40.671Z,44.55
2022-11-30T01:54:10.836Z,40.72
2022-11-30T01:56:45.052Z,41.35
2022-11-30T01:59:11.831Z,42.00
2022-11-30T02:01:38.416Z,36.70
2022-11-30T02:04:20.797Z,40.75
2022-11-30T02:06:48.194Z,40.95
2022-11-30T02:09:16.568Z,43.22
2022-11-30T02:11:43.088Z,43.58
2022-11-30T02:14:23.621Z,41.63
2022-11-30T02:17:08.565Z,44.75
2022-11-30T02:20:06.727Z,45.25
2022-11-30T02:22:38.916Z,43.22
2022-11-30T02:25:20.098Z,43.75
2022-11-30T02:28:07.391Z,42.10
2022-11-30T02:30:37.715Z,43.60
2022-11-30T02:33:11.910Z,44.63
2022-11-30T02:35:42.595Z,48.97
2022-11-30T02:40:35.982Z,48.40
2022-11-30T02:43:04.985Z,44.78
2022-11-30T02:45:38.117Z,53.58
2022-11-30T02:48:09.841Z,45.30
2022-11-30T02:50:45.849Z,46.50
2022-11-30T02:53:13.289Z,43.88
2022-11-30T02:55:40.166Z,47.45
2022-11-30T02:58:06.946Z,50.20
2022-11-30T03:00:33.633Z,48.45
2022-11-30T03:03:00.227Z,46.55
2022-11-30T03:05:26.832Z,47.50
2022-11-30T03:07:53.444Z,49.92
2022-11-30T03:10:20.062Z,54.50
2022-11-30T03:12:46.593Z,50.67
2022-11-30T03:15:13.138Z,46.55
2022-11-30T03:17:39.788Z,51.03
2022-11-30T03:20:07.530Z,49.25
2022-11-30T03:22:34.096Z,48.25
2022-11-30T03:25:00.612Z,49.45
2022-11-30T03:27:27.116Z,50.85
2022-11-30T03:29:53.742Z,45.50
2022-11-30T03:32:20.255Z,50.42
2022-11-30T03:34:46.908Z,47.70
2022-11-30T03:37:13.630Z,54.33
2022-11-30T03:39:40.239Z,51.42
2022-11-30T03:42:06.787Z,55.80
2022-11-30T03:44:33.333Z,51.85
2022-11-30T03:46:59.840Z,53.15
2022-11-30T03:49:26.448Z,53.03
2022-11-30T03:51:52.983Z,51.10
2022-11-30T03:54:19.557Z,55.30
2022-11-30T03:56:46.142Z,50.42
2022-11-30T03:59:12.674Z,52.15
2022-11-30T04:01:42.778Z,47.63
2022-11-30T04:04:09.647Z,49.67
2022-11-30T04:06:36.171Z,49.97
2022-11-30T04:09:02.972Z,52.05
2022-11-30T04:11:29.770Z,47.63
2022-11-30T04:13:56.304Z,45.80
2022-11-30T04:16:22.967Z,49.10
2022-11-30T04:18:49.608Z,49.30
2022-11-30T04:21:16.204Z,46.72
2022-11-30T04:23:42.735Z,51.83
2022-11-30T04:26:13.156Z,48.00
2022-11-30T04:28:40.174Z,46.35
2022-11-30T04:31:06.898Z,45.92
2022-11-30T04:33:33.502Z,50.72
2022-11-30T04:36:03.298Z,44.92
2022-11-30T04:38:30.454Z,45.37
2022-11-30T04:40:57.089Z,51.47
2022-11-30T04:43:24.037Z,50.35
2022-11-30T04:45:51.248Z,55.85
2022-11-30T04:48:18.974Z,47.72
2022-11-30T04:50:45.588Z,41.13
2022-11-30T04:53:12.174Z,57.70
2022-11-30T04:55:38.797Z,48.80
2022-11-30T04:58:06.127Z,43.85
2022-11-30T05:00:34.560Z,45.90
2022-11-30T05:03:01.115Z,47.80
2022-11-30T05:05:27.851Z,46.90
2022-11-30T05:07:58.966Z,43.30
2022-11-30T05:10:26.891Z,42.58
2022-11-30T05:12:53.511Z,52.97
2022-11-30T05:15:20.614Z,43.33
2022-11-30T05:17:47.145Z,41.70
2022-11-30T05:20:13.692Z,45.78
2022-11-30T05:22:40.457Z,42.47
2022-11-30T05:25:07.962Z,48.97
2022-11-30T05:27:35.387Z,50.50
2022-11-30T05:30:02.350Z,46.35
2022-11-30T05:32:28.914Z,50.95
2022-11-30T05:34:55.847Z,51.78
2022-11-30T05:37:22.498Z,50.25
2022-11-30T05:39:49.086Z,46.42
2022-11-30T05:42:15.758Z,53.40
2022-11-30T05:44:42.400Z,58.83
2022-11-30T05:47:09.343Z,50.97
2022-11-30T05:49:35.984Z,52.45
2022-11-30T05:52:02.503Z,53.80
2022-11-30T05:54:29.095Z,48.83
2022-11-30T05:56:55.587Z,54.53
2022-11-30T05:59:23.232Z,47.83
2022-11-30T06:01:52.703Z,54.28
2022-11-30T06:04:19.673Z,50.78
2022-11-30T06:06:46.296Z,50.63
2022-11-30T06:09:12.913Z,49.95
2022-11-30T06:11:39.467Z,55.15
2022-11-30T06:14:06.094Z,53.67
2022-11-30T06:16:32.697Z,52.70
2022-11-30T06:18:59.282Z,57.17
2022-11-30T06:21:25.817Z,52.28
2022-11-30T06:23:52.735Z,52.75
2022-11-30T06:26:19.570Z,54.05
2022-11-30T06:28:48.774Z,53.88
2022-11-30T06:31:16.296Z,52.92
2022-11-30T06:33:43.390Z,55.83
2022-11-30T06:36:10.325Z,58.08
2022-11-30T06:38:37.281Z,52.92
2022-11-30T06:41:06.094Z,55.20
2022-11-30T06:43:36.799Z,50.97
2022-11-30T06:48:30.699Z,57.30
2022-11-30T06:50:58.496Z,55.08
2022-11-30T06:53:25.344Z,60.50
2022-11-30T06:55:52.365Z,57.88
2022-11-30T06:58:19.162Z,63.42
2022-11-30T07:00:45.873Z,62.63
2022-11-30T07:03:12.914Z,57.97
2022-11-30T07:05:43.883Z,58.95
2022-11-30T07:08:11.354Z,56.42
2022-11-30T07:10:42.198Z,58.65
2022-11-30T07:13:14.183Z,60.97
2022-11-30T07:15:41.907Z,57.88
2022-11-30T07:18:09.220Z,62.83
2022-11-30T07:20:36.374Z,56.80
2022-11-30T07:23:23.314Z,59.33
2022-11-30T07:26:06.686Z,57.70
2022-11-30T07:28:36.004Z,60.97
2022-11-30T07:31:16.545Z,63.25
2022-11-30T07:33:43.570Z,56.63
2022-11-30T07:36:10.322Z,59.70
2022-11-30T07:38:37.390Z,58.63
2022-11-30T07:41:04.152Z,55.28
2022-11-30T07:43:30.872Z,52.10
2022-11-30T07:45:57.591Z,50.78
2022-11-30T07:48:24.191Z,44.33
2022-11-30T07:50:51.137Z,43.58
2022-11-30T07:53:17.945Z,44.67
2022-11-30T07:55:44.800Z,42.80
2022-11-30T07:58:17.153Z,36.70
2022-11-30T08:00:44.231Z,33.55
2022-11-30T08:03:10.812Z,44.28
2022-11-30T08:05:37.402Z,38.05
2022-11-30T08:08:03.931Z,37.55
2022-11-30T08:10:30.644Z,37.75
2022-11-30T08:12:57.140Z,39.40
2022-11-30T08:15:30.567Z,39.03
2022-11-30T08:18:05.286Z,38.38
2022-11-30T08:20:31.867Z,32.25
2022-11-30T08:22:58.802Z,39.33
2022-11-30T08:25:25.348Z,30.33
2022-11-30T08:27:51.892Z,38.53
2022-11-30T08:30:18.455Z,36.58
2022-11-30T08:32:45.056Z,33.28
2022-11-30T08:35:11.814Z,29.90
2022-11-30T08:37:38.777Z,31.02
2022-11-30T08:40:06.496Z,36.90
2022-11-30T08:42:33.311Z,37.30
2022-11-30T08:45:00.492Z,33.72
2022-11-30T08:47:30.124Z,36.65
2022-11-30T08:49:57.999Z,40.92
2022-11-30T08:52:24.918Z,39.90
2022-11-30T08:54:51.679Z,43.08
2022-11-30T08:57:20.787Z,44.47
2022-11-30T08:59:47.896Z,47.80
2022-11-30T09:02:19.627Z,44.60
2022-11-30T09:04:49.108Z,40.38
2022-11-30T09:07:16.084Z,51.70
2022-11-30T09:09:42.658Z,43.45
2022-11-30T09:12:09.485Z,50.90
2022-11-30T09:14:36.140Z,51.88
2022-11-30T09:17:03.077Z,56.30
2022-11-30T09:19:29.575Z,50.05
2022-11-30T09:21:56.080Z,53.75
2022-11-30T09:24:22.749Z,67.07
2022-11-30T09:26:49.312Z,61.25
2022-11-30T09:29:15.817Z,61.20
2022-11-30T09:31:42.337Z,64.32
2022-11-30T09:34:11.380Z,60.50
2022-11-30T09:36:38.272Z,66.40
2022-11-30T09:39:04.772Z,69.25
2022-11-30T09:41:34.273Z,65.47
2022-11-30T09:44:28.151Z,64.18
2022-11-30T09:47:32.549Z,68.63
2022-11-30T09:50:04.826Z,76.88
2022-11-30T09:52:37.806Z,64.18
2022-11-30T09:55:13.971Z,63.60
2022-11-30T09:57:50.644Z,61.95
2022-11-30T10:00:21.873Z,68.65
2022-11-30T10:02:53.529Z,66.28
2022-11-30T10:05:23.550Z,66.38
2022-11-30T10:08:17.995Z,68.20
2022-11-30T10:11:03.178Z,69.85
2022-11-30T10:13:55.317Z,62.65
2022-11-30T10:16:46.426Z,64.22
2022-11-30T10:19:18.627Z,64.05
2022-11-30T10:22:31.080Z,62.40
2022-11-30T10:25:00.179Z,65.05
2022-11-30T10:27:52.141Z,59.55
2022-11-30T10:30:24.633Z,68.35
2022-11-30T10:32:54.307Z,55.60
2022-11-30T10:35:34.821Z,59.67
2022-11-30T10:38:19.761Z,57.92
2022-11-30T10:40:57.214Z,60.03
2022-11-30T10:43:30.152Z,55.60
2022-11-30T10:45:56.829Z,55.78
2022-11-30T10:48:47.505Z,64.30
2022-11-30T10:51:14.371Z,61.88
2022-11-30T10:53:41.152Z,59.90
2022-11-30T10:56:12.885Z,60.38
2022-11-30T10:58:56.757Z,58.80
2022-11-30T11:01:36.136Z,47.10
2022-11-30T11:04:23.920Z,44.90
2022-11-30T11:07:09.278Z,46.03
2022-11-30T11:09:37.149Z,45.60
2022-11-30T11:12:25.574Z,43.70
2022-11-30T11:15:10.633Z,43.05
2022-11-30T11:17:37.228Z,37.50
2022-11-30T11:20:04.511Z,36.90
2022-11-30T11:22:31.607Z,34.90
2022-11-30T11:25:43.215Z,34.17
2022-11-30T11:28:18.816Z,35.13
2022-11-30T11:30:45.404Z,36.10
2022-11-30T11:33:12.082Z,34.35
2022-11-30T11:35:53.361Z,35.40
2022-11-30T11:38:29.568Z,35.92
2022-11-30T11:41:02.716Z,40.08
2022-11-30T11:43:40.822Z,41.72
2022-11-30T11:46:13.853Z,37.80
2022-11-30T11:48:46.064Z,42.78
2022-11-30T11:51:13.954Z,41.22
2022-11-30T11:53:54.852Z,41.65
2022-11-30T11:56:28.363Z,40.28
2022-11-30T11:59:00.532Z,40.55
2022-11-30T12:01:42.108Z,39.83
2022-11-30T12:04:48.237Z,42.22
2022-11-30T12:07:24.155Z,40.72
2022-11-30T12:10:03.057Z,38.10
2022-11-30T12:12:29.651Z,39.35
2022-11-30T12:14:56.603Z,38.83
2022-11-30T12:17:52.116Z,40.42
2022-11-30T12:20:47.731Z,41.00
2022-11-30T12:23:45.179Z,43.72
2022-11-30T12:26:36.022Z,43.05
2022-11-30T12:29:18.470Z,41.15
2022-11-30T12:32:10.740Z,40.78
2022-11-30T12:34:48.106Z,48.78
2022-11-30T12:37:41.695Z,46.75
2022-11-30T12:40:38.280Z,43.38
2022-11-30T12:43:23.318Z,49.53
2022-11-30T12:45:56.006Z,46.47
2022-11-30T12:48:31.843Z,54.35
2022-11-30T12:51:30.153Z,53.00
2022-11-30T12:53:59.805Z,50.53
2022-11-30T12:56:29.159Z,51.60
2022-11-30T12:59:06.964Z,51.92
2022-11-30T13:02:00.732Z,47.22
2022-11-30T13:04:59.031Z,46.63
2022-11-30T13:07:43.805Z,50.60
2022-11-30T13:10:26.675Z,48.70
2022-11-30T13:12:55.961Z,55.60
2022-11-30T13:15:25.745Z,55.67
2022-11-30T13:17:53.585Z,59.47
2022-11-30T13:20:32.782Z,58.97
2022-11-30T13:23:13.936Z,49.42
2022-11-30T13:26:08.947Z,47.80
2022-11-30T13:29:06.426Z,43.92
2022-11-30T13:31:46.095Z,48.42
2022-11-30T13:34:30.212Z,47.95
2022-11-30T13:37:03.339Z,46.35
2022-11-30T13:39:42.954Z,54.20
2022-11-30T13:42:24.469Z,48.33
2022-11-30T13:44:51.322Z,49.38
2022-11-30T13:47:36.258Z,51.63
2022-11-30T13:50:09.455Z,51.92
2022-11-30T13:53:17.293Z,49.47
2022-11-30T13:55:51.921Z,52.50
2022-11-30T13:58:19.930Z,52.67
2022-11-30T14:01:31.946Z,50.53
2022-11-30T14:04:20.193Z,47.03
2022-11-30T14:06:52.903Z,53.70
2022-11-30T14:09:40.920Z,48.60
2022-11-30T14:12:37.230Z,45.33
2022-11-30T14:15:38.751Z,47.55
2022-11-30T14:18:21.957Z,44.45
2022-11-30T14:21:12.618Z,46.97
2022-11-30T14:23:39.199Z,45.30
2022-11-30T14:26:13.485Z,48.88
2022-11-30T14:28:46.179Z,45.88
2022-11-30T14:31:20.634Z,48.90
2022-11-30T14:34:02.634Z,41.97
2022-11-30T14:36:37.752Z,42.05
2022-11-30T14:39:04.700Z,42.78
2022-11-30T14:41:32.127Z,42.88
2022-11-30T14:44:11.951Z,43.00
2022-11-30T14:46:38.722Z,38.73
2022-11-30T14:49:15.715Z,40.35
2022-11-30T14:51:44.988Z,40.63
2022-11-30T14:54:27.190Z,42.55
2022-11-30T14:57:14.787Z,39.17
2022-11-30T14:59:53.830Z,36.03
2022-11-30T15:02:31.061Z,38.92
2022-11-30T15:04:59.531Z,38.30
2022-11-30T15:07:27.940Z,42.67
2022-11-30T15:10:08.291Z,34.83
2022-11-30T15:12:35.438Z,34.25
2022-11-30T15:15:14.670Z,35.78
2022-11-30T15:17:48.094Z,37.38
2022-11-30T15:20:18.758Z,32.55
2022-11-30T15:25:12.741Z,36.05
2022-11-30T15:27:39.765Z,34.70
2022-11-30T15:30:07.361Z,34.80
2022-11-30T15:32:34.105Z,31.25
2022-11-30T15:35:01.069Z,36.00
2022-11-30T15:37:33.554Z,36.83
2022-11-30T15:40:02.893Z,33.05
2022-11-30T15:42:39.931Z,31.92
2022-11-30T15:45:29.760Z,29.15
2022-11-30T15:47:57.714Z,34.00
2022-11-30T15:50:28.615Z,30.98
2022-11-30T15:53:02.866Z,32.78
2022-11-30T15:55:51.593Z,32.72
2022-11-30T15:58:30.085Z,32.95
2022-11-30T16:01:05.908Z,31.20
2022-11-30T16:03:34.109Z,34.13
2022-11-30T16:06:04.834Z,33.90
2022-11-30T16:11:01.918Z,20.25
2022-11-30T16:13:31.628Z,22.20
2022-11-30T16:16:00.575Z,22.52
2022-11-30T16:18:28.295Z,20.08
2022-11-30T16:20:59.952Z,17.02
2022-11-30T16:23:27.646Z,18.55
2022-11-30T16:25:54.193Z,15.88
2022-11-30T16:28:22.448Z,15.63
2022-11-30T16:30:49.810Z,17.42
2022-11-30T16:33:19.727Z,17.60
2022-11-30T16:36:03.067Z,20.17
2022-11-30T16:38:29.918Z,17.77
2022-11-30T16:41:15.194Z,19.02
2022-11-30T16:43:42.619Z,21.90
2022-11-30T16:46:24.380Z,21.33
2022-11-30T16:48:51.877Z,24.15
2022-11-30T16:51:27.654Z,22.58
2022-11-30T16:53:54.637Z,23.92
2022-11-30T16:56:21.911Z,23.80
2022-11-30T16:58:49.183Z,25.08
2022-11-30T17:01:34.874Z,24.70
2022-11-30T17:04:23.780Z,25.23
2022-11-30T17:06:53.609Z,29.23
2022-11-30T17:09:23.144Z,28.20
2022-11-30T17:11:51.191Z,25.63
2022-11-30T17:14:19.366Z,28.15
2022-11-30T17:16:46.019Z,33.67
2022-11-30T17:19:12.834Z,31.83
2022-11-30T17:21:40.266Z,26.75
2022-11-30T17:24:07.323Z,29.95
2022-11-30T17:26:34.077Z,30.10
2022-11-30T17:29:00.645Z,29.33
2022-11-30T17:31:28.095Z,28.48
2022-11-30T17:33:54.743Z,26.80
2022-11-30T17:36:21.299Z,26.42
2022-11-30T17:38:47.849Z,27.30
2022-11-30T17:41:19.310Z,28.23
2022-11-30T17:43:46.844Z,30.35
2022-11-30T17:46:16.026Z,30.50
2022-11-30T17:48:43.863Z,31.58
2022-11-30T17:51:12.244Z,29.88
2022-11-30T17:53:39.889Z,28.45
2022-11-30T17:56:15.606Z,32.70
2022-11-30T17:58:44.442Z,31.40
2022-11-30T18:01:26.074Z,32.88
2022-11-30T18:03:53.699Z,32.85
2022-11-30T18:06:20.657Z,31.50
2022-11-30T18:08:48.366Z,31.60
2022-11-30T18:11:18.970Z,32.92
2022-11-30T18:16:15.670Z,32.92
2022-11-30T18:18:47.393Z,36.92
2022-11-30T18:21:17.068Z,35.88
2022-11-30T18:23:43.943Z,36.72
2022-11-30T18:26:13.346Z,32.97
2022-11-30T18:28:40.049Z,37.22
2022-11-30T18:31:07.054Z,35.65
2022-11-30T18:33:34.780Z,35.40
2022-11-30T18:36:02.339Z,35.00
2022-11-30T18:38:34.189Z,32.90
2022-11-30T18:41:04.107Z,36.60
2022-11-30T18:43:31.738Z,31.92
2022-11-30T18:46:10.004Z,33.38
2022-11-30T18:48:37.909Z,33.38
2022-11-30T18:51:12.930Z,33.90
2022-11-30T18:53:39.622Z,32.25
2022-11-30T18:56:14.798Z,36.05
2022-11-30T18:58:42.314Z,35.17
2022-11-30T19:01:18.164Z,34.63
2022-11-30T19:03:50.632Z,32.05
2022-11-30T19:06:17.385Z,32.28
2022-11-30T19:08:43.948Z,34.47
2022-11-30T19:11:10.533Z,38.10
2022-11-30T19:13:37.356Z,35.97
2022-11-30T19:16:06.403Z,36.65
2022-11-30T19:18:33.516Z,34.80
2022-11-30T19:21:00.295Z,32.58
2022-11-30T19:23:27.314Z,36.80
2022-11-30T19:26:00.117Z,35.97
2022-11-30T19:28:30.008Z,35.25
2022-11-30T19:30:57.493Z,32.85
2022-11-30T19:33:24.247Z,32.60
2022-11-30T19:35:50.772Z,32.00
2022-11-30T19:38:17.592Z,33.60
2022-11-30T19:40:44.418Z,34.38
2022-11-30T19:43:11.078Z,33.50
2022-11-30T19:45:37.713Z,33.58
2022-11-30T19:48:04.506Z,33.55
2022-11-30T19:50:34.414Z,35.97
2022-11-30T19:53:00.992Z,36.78
2022-11-30T19:55:33.654Z,33.47
2022-11-30T19:58:01.464Z,35.45
2022-11-30T20:00:28.211Z,33.92
2022-11-30T20:02:54.866Z,31.38
2022-11-30T20:05:21.827Z,33.83
2022-11-30T20:07:51.277Z,35.42
2022-11-30T20:10:17.915Z,32.85
2022-11-30T20:12:45.292Z,31.27
2022-11-30T20:15:12.193Z,31.83
2022-11-30T20:17:38.718Z,30.75
2022-11-30T20:20:06.033Z,30.42
2022-11-30T20:22:33.585Z,32.38
2022-11-30T20:25:00.115Z,33.63
2022-11-30T20:27:26.797Z,31.73
2022-11-30T20:29:53.547Z,29.58
2022-11-30T20:32:20.087Z,31.02
2022-11-30T20:34:46.854Z,30.77
2022-11-30T20:37:15.637Z,33.00
2022-11-30T20:39:45.676Z,31.95
2022-11-30T20:44:40.082Z,28.10
2022-11-30T20:47:06.657Z,33.25
2022-11-30T20:49:33.249Z,28.85
2022-11-30T20:51:59.898Z,34.05
2022-11-30T20:54:31.657Z,32.92
2022-11-30T20:56:59.006Z,31.25
2022-11-30T20:59:26.563Z,27.65
2022-11-30T21:05:46.862Z,23.08
2022-11-30T21:08:13.497Z,26.27
2022-11-30T21:10:40.335Z,22.85
2022-11-30T21:13:06.835Z,22.65
2022-11-30T21:15:33.510Z,25.55
2022-11-30T21:18:00.132Z,18.23
2022-11-30T21:20:26.818Z,21.83
2022-11-30T21:22:53.372Z,24.42
2022-11-30T21:25:19.918Z,22.25
2022-11-30T21:27:52.265Z,22.95
2022-11-30T21:30:19.256Z,23.20
2022-11-30T21:32:45.826Z,22.90
2022-11-30T21:35:12.686Z,19.92
2022-11-30T21:37:39.227Z,20.13
2022-11-30T21:40:06.449Z,20.33
2022-11-30T21:42:33.069Z,22.65
2022-11-30T21:44:59.620Z,22.90
2022-11-30T21:47:29.737Z,21.83
2022-11-30T21:49:56.908Z,19.27
2022-11-30T21:52:23.452Z,22.20
2022-11-30T21:54:53.533Z,24.33
2022-11-30T21:57:21.453Z,21.92
2022-11-30T21:59:48.520Z,20.23
2022-11-30T22:02:15.344Z,23.80
2022-11-30T22:04:42.491Z,21.40
2022-11-30T22:07:12.211Z,23.73
2022-11-30T22:09:38.938Z,22.83
2022-11-30T22:12:05.644Z,23.50
2022-11-30T22:14:32.235Z,23.33
2022-11-30T22:16:58.813Z,24.20
2022-11-30T22:19:25.458Z,22.77
2022-11-30T22:21:52.393Z,25.88
2022-11-30T22:24:19.150Z,22.50
2022-11-30T22:26:46.145Z,25.38
2022-11-30T22:29:17.780Z,27.42
2022-11-30T22:31:46.684Z,32.50
2022-11-30T22:34:13.961Z,29.50
2022-11-30T22:36:44.578Z,29.17
2022-11-30T22:41:40.678Z,29.95
2022-11-30T22:44:07.592Z,27.40
2022-11-30T22:46:36.722Z,31.65
2022-11-30T22:49:05.802Z,31.92
2022-11-30T22:51:34.009Z,30.15
2022-11-30T22:54:01.454Z,32.33
2022-11-30T22:56:41.718Z,33.25
2022-11-30T22:59:11.550Z,30.75
2022-11-30T23:01:42.220Z,32.80
2022-11-30T23:06:38.330Z,33.75
2022-11-30T23:09:06.345Z,31.23
2022-11-30T23:11:33.746Z,29.38
2022-11-30T23:14:00.645Z,29.30
2022-11-30T23:16:27.340Z,26.55
2022-11-30T23:18:57.094Z,35.25
2022-11-30T23:21:30.204Z,33.23
2022-11-30T23:23:58.812Z,30.98
2022-11-30T23:26:28.267Z,32.85
2022-11-30T23:28:58.075Z,30.48
2022-11-30T23:31:34.063Z,32.05
2022-11-30T23:34:04.332Z,28.98
2022-11-30T23:36:30.991Z,28.38
2022-11-30T23:39:00.339Z,30.45
2022-11-30T23:41:27.233Z,29.13
2022-11-30T23:43:53.787Z,29.88
2022-11-30T23:46:20.573Z,30.98
2022-11-30T23:48:47.308Z,28.48
2022-11-30T23:51:13.874Z,28.90
2022-11-30T23:53:40.489Z,28.75
2022-11-30T23:56:11.100Z,33.05
